sensor_id;sensor_type;location;lat;lon;timestamp;P1;durP1;ratioP1;P2;durP2;ratioP2
3891;SDS011;1961;48.194;16.370;2022-12-31T00:02:11;89.13;;;29.25;;
3891;SDS011;1961;48.194;16.370;2022-12-31T00:04:37;87.78;;;28.52;;
3891;SDS011;1961;48.194;16.370;2022-12-31T00:07:03;85.82;;;28.85;;
3891;SDS011;1961;48.194;16.370;2022-12-31T00:09:30;92.15;;;29.38;;
3891;SDS011;1961;48.194;16.370;2022-12-31T00:11:56;88.20;;;28.52;;
3891;SDS011;1961;48.194;16.370;2022-12-31T00:14:22;95.03;;;29.95;;
3891;SDS011;1961;48.194;16.370;2022-12-31T00:16:48;92.55;;;28.95;;
3891;SDS011;1961;48.194;16.370;2022-12-31T00:19:14;88.72;;;30.15;;
3891;SDS011;1961;48.194;16.370;2022-12-31T00:21:41;95.75;;;28.58;;
3891;SDS011;1961;48.194;16.370;2022-12-31T00:24:09;86.70;;;29.20;;
3891;SDS011;1961;48.194;16.370;2022-12-31T00:26:36;90.28;;;30.02;;
3891;SDS011;1961;48.194;16.370;2022-12-31T00:29:03;93.47;;;29.58;;
3891;SDS011;1961;48.194;16.370;2022-12-31T00:31:30;82.40;;;27.13;;
3891;SDS011;1961;48.194;16.370;2022-12-31T00:33:57;85.63;;;27.73;;
3891;SDS011;1961;48.194;16.370;2022-12-31T00:36:25;85.28;;;28.10;;
3891;SDS011;1961;48.194;16.370;2022-12-31T00:38:52;87.10;;;27.25;;
3891;SDS011;1961;48.194;16.370;2022-12-31T00:41:19;81.97;;;25.85;;
3891;SDS011;1961;48.194;16.370;2022-12-31T00:43:45;88.68;;;27.67;;
3891;SDS011;1961;48.194;16.370;2022-12-31T00:46:12;82.45;;;27.80;;
3891;SDS011;1961;48.194;16.370;2022-12-31T00:48:39;88.38;;;26.77;;
3891;SDS011;1961;48.194;16.370;2022-12-31T00:51:07;87.90;;;28.48;;
3891;SDS011;1961;48.194;16.370;2022-12-31T00:53:34;90.68;;;27.58;;
3891;SDS011;1961;48.194;16.370;2022-12-31T00:56:16;82.82;;;26.23;;
3891;SDS011;1961;48.194;16.370;2022-12-31T00:58:43;88.93;;;27.40;;
3891;SDS011;1961;48.194;16.370;2022-12-31T01:01:10;80.13;;;26.52;;
3891;SDS011;1961;48.194;16.370;2022-12-31T01:03:36;76.63;;;25.75;;
3891;SDS011;1961;48.194;16.370;2022-12-31T01:06:03;83.50;;;26.08;;
3891;SDS011;1961;48.194;16.370;2022-12-31T01:08:29;72.60;;;26.08;;
3891;SDS011;1961;48.194;16.370;2022-12-31T01:10:55;79.65;;;25.55;;
3891;SDS011;1961;48.194;16.370;2022-12-31T01:13:40;74.72;;;24.85;;
3891;SDS011;1961;48.194;16.370;2022-12-31T01:16:10;77.82;;;24.25;;
3891;SDS011;1961;48.194;16.370;2022-12-31T01:18:36;77.78;;;25.45;;
3891;SDS011;1961;48.194;16.370;2022-12-31T01:21:03;73.82;;;25.10;;
3891;SDS011;1961;48.194;16.370;2022-12-31T01:23:30;77.72;;;25.63;;
3891;SDS011;1961;48.194;16.370;2022-12-31T01:26:00;72.82;;;25.83;;
3891;SDS011;1961;48.194;16.370;2022-12-31T01:28:27;77.03;;;25.90;;
3891;SDS011;1961;48.194;16.370;2022-12-31T01:30:53;79.68;;;27.33;;
3891;SDS011;1961;48.194;16.370;2022-12-31T01:33:20;77.65;;;26.15;;
3891;SDS011;1961;48.194;16.370;2022-12-31T01:35:46;75.22;;;27.02;;
3891;SDS011;1961;48.194;16.370;2022-12-31T01:38:13;74.15;;;27.00;;
3891;SDS011;1961;48.194;16.370;2022-12-31T01:40:40;75.35;;;27.73;;
3891;SDS011;1961;48.194;16.370;2022-12-31T01:43:18;79.15;;;27.35;;
3891;SDS011;1961;48.194;16.370;2022-12-31T01:45:45;74.05;;;25.25;;
3891;SDS011;1961;48.194;16.370;2022-12-31T01:48:12;77.22;;;27.30;;
3891;SDS011;1961;48.194;16.370;2022-12-31T01:50:40;73.72;;;27.05;;
3891;SDS011;1961;48.194;16.370;2022-12-31T01:53:07;78.32;;;25.17;;
3891;SDS011;1961;48.194;16.370;2022-12-31T01:55:42;74.03;;;24.42;;
3891;SDS011;1961;48.194;16.370;2022-12-31T01:58:14;73.40;;;26.60;;
3891;SDS011;1961;48.194;16.370;2022-12-31T02:00:41;71.35;;;24.20;;
3891;SDS011;1961;48.194;16.370;2022-12-31T02:03:08;72.25;;;25.17;;
3891;SDS011;1961;48.194;16.370;2022-12-31T02:05:56;66.50;;;24.33;;
3891;SDS011;1961;48.194;16.370;2022-12-31T02:08:20;70.88;;;22.75;;
3891;SDS011;1961;48.194;16.370;2022-12-31T02:10:46;69.97;;;23.05;;
3891;SDS011;1961;48.194;16.370;2022-12-31T02:13:14;74.05;;;24.25;;
3891;SDS011;1961;48.194;16.370;2022-12-31T02:30:53;67.82;;;24.92;;
3891;SDS011;1961;48.194;16.370;2022-12-31T02:35:52;71.90;;;24.88;;
3891;SDS011;1961;48.194;16.370;2022-12-31T02:38:21;70.57;;;24.40;;
3891;SDS011;1961;48.194;16.370;2022-12-31T02:40:48;70.45;;;24.00;;
3891;SDS011;1961;48.194;16.370;2022-12-31T02:43:14;74.50;;;24.77;;
3891;SDS011;1961;48.194;16.370;2022-12-31T02:45:42;67.22;;;22.63;;
3891;SDS011;1961;48.194;16.370;2022-12-31T02:48:20;69.28;;;24.45;;
3891;SDS011;1961;48.194;16.370;2022-12-31T02:56:33;69.75;;;24.60;;
3891;SDS011;1961;48.194;16.370;2022-12-31T02:59:06;65.45;;;23.75;;
3891;SDS011;1961;48.194;16.370;2022-12-31T03:01:54;70.80;;;25.30;;
3891;SDS011;1961;48.194;16.370;2022-12-31T03:04:38;68.13;;;23.23;;
3891;SDS011;1961;48.194;16.370;2022-12-31T03:07:06;73.60;;;25.33;;
3891;SDS011;1961;48.194;16.370;2022-12-31T03:09:33;68.95;;;25.55;;
3891;SDS011;1961;48.194;16.370;2022-12-31T03:12:00;71.00;;;24.75;;
3891;SDS011;1961;48.194;16.370;2022-12-31T03:14:45;72.93;;;24.90;;
3891;SDS011;1961;48.194;16.370;2022-12-31T03:17:11;73.28;;;25.13;;
3891;SDS011;1961;48.194;16.370;2022-12-31T03:19:38;72.93;;;25.48;;
3891;SDS011;1961;48.194;16.370;2022-12-31T03:22:22;71.95;;;25.15;;
3891;SDS011;1961;48.194;16.370;2022-12-31T03:24:51;70.15;;;24.95;;
3891;SDS011;1961;48.194;16.370;2022-12-31T03:27:36;68.18;;;24.35;;
3891;SDS011;1961;48.194;16.370;2022-12-31T03:30:03;66.60;;;23.52;;
3891;SDS011;1961;48.194;16.370;2022-12-31T03:32:29;68.00;;;24.48;;
3891;SDS011;1961;48.194;16.370;2022-12-31T03:34:55;67.82;;;24.25;;
3891;SDS011;1961;48.194;16.370;2022-12-31T03:37:21;69.13;;;23.17;;
3891;SDS011;1961;48.194;16.370;2022-12-31T03:39:47;63.35;;;22.38;;
3891;SDS011;1961;48.194;16.370;2022-12-31T03:42:13;67.88;;;24.23;;
3891;SDS011;1961;48.194;16.370;2022-12-31T03:44:40;65.30;;;23.80;;
3891;SDS011;1961;48.194;16.370;2022-12-31T03:47:06;67.18;;;23.52;;
3891;SDS011;1961;48.194;16.370;2022-12-31T03:49:32;70.20;;;24.95;;
3891;SDS011;1961;48.194;16.370;2022-12-31T03:51:58;72.45;;;24.95;;
3891;SDS011;1961;48.194;16.370;2022-12-31T03:54:27;71.18;;;24.02;;
3891;SDS011;1961;48.194;16.370;2022-12-31T03:56:53;67.68;;;24.00;;
3891;SDS011;1961;48.194;16.370;2022-12-31T03:59:19;71.50;;;26.70;;
3891;SDS011;1961;48.194;16.370;2022-12-31T04:01:45;68.03;;;24.10;;
3891;SDS011;1961;48.194;16.370;2022-12-31T04:04:12;72.05;;;24.67;;
3891;SDS011;1961;48.194;16.370;2022-12-31T04:06:38;69.47;;;23.92;;
3891;SDS011;1961;48.194;16.370;2022-12-31T04:09:04;75.60;;;25.63;;
3891;SDS011;1961;48.194;16.370;2022-12-31T04:11:30;67.80;;;24.50;;
3891;SDS011;1961;48.194;16.370;2022-12-31T04:13:56;74.47;;;25.92;;
3891;SDS011;1961;48.194;16.370;2022-12-31T04:16:23;71.40;;;23.98;;
3891;SDS011;1961;48.194;16.370;2022-12-31T04:18:49;74.50;;;25.38;;
3891;SDS011;1961;48.194;16.370;2022-12-31T04:21:16;70.90;;;25.58;;
3891;SDS011;1961;48.194;16.370;2022-12-31T04:23:42;70.18;;;23.35;;
3891;SDS011;1961;48.194;16.370;2022-12-31T04:26:08;72.45;;;24.83;;
3891;SDS011;1961;48.194;16.370;2022-12-31T04:28:34;74.03;;;24.15;;
3891;SDS011;1961;48.194;16.370;2022-12-31T04:31:00;69.78;;;24.60;;
3891;SDS011;1961;48.194;16.370;2022-12-31T04:33:28;71.03;;;23.85;;
3891;SDS011;1961;48.194;16.370;2022-12-31T04:36:02;79.00;;;26.75;;
3891;SDS011;1961;48.194;16.370;2022-12-31T04:38:28;67.93;;;22.75;;
3891;SDS011;1961;48.194;16.370;2022-12-31T04:40:54;66.80;;;23.92;;
3891;SDS011;1961;48.194;16.370;2022-12-31T04:43:39;67.43;;;22.98;;
3891;SDS011;1961;48.194;16.370;2022-12-31T04:46:06;64.53;;;22.50;;
3891;SDS011;1961;48.194;16.370;2022-12-31T04:48:32;68.13;;;23.08;;
3891;SDS011;1961;48.194;16.370;2022-12-31T04:50:59;64.97;;;21.77;;
3891;SDS011;1961;48.194;16.370;2022-12-31T04:53:25;66.88;;;23.60;;
3891;SDS011;1961;48.194;16.370;2022-12-31T04:55:51;68.07;;;23.23;;
3891;SDS011;1961;48.194;16.370;2022-12-31T04:58:17;65.50;;;22.17;;
3891;SDS011;1961;48.194;16.370;2022-12-31T05:00:46;65.43;;;21.48;;
3891;SDS011;1961;48.194;16.370;2022-12-31T05:03:16;67.95;;;22.60;;
3891;SDS011;1961;48.194;16.370;2022-12-31T05:05:43;64.25;;;22.77;;
3891;SDS011;1961;48.194;16.370;2022-12-31T05:08:09;66.35;;;22.92;;
3891;SDS011;1961;48.194;16.370;2022-12-31T05:10:40;64.18;;;21.63;;
3891;SDS011;1961;48.194;16.370;2022-12-31T05:13:07;61.25;;;20.50;;
3891;SDS011;1961;48.194;16.370;2022-12-31T05:15:34;63.17;;;21.95;;
3891;SDS011;1961;48.194;16.370;2022-12-31T05:18:00;65.28;;;21.98;;
3891;SDS011;1961;48.194;16.370;2022-12-31T05:20:27;65.25;;;22.40;;
3891;SDS011;1961;48.194;16.370;2022-12-31T05:22:53;63.80;;;22.90;;
3891;SDS011;1961;48.194;16.370;2022-12-31T05:25:20;66.45;;;23.23;;
3891;SDS011;1961;48.194;16.370;2022-12-31T05:27:46;66.25;;;23.17;;
3891;SDS011;1961;48.194;16.370;2022-12-31T05:30:12;70.57;;;24.73;;
3891;SDS011;1961;48.194;16.370;2022-12-31T05:32:39;71.45;;;23.00;;
3891;SDS011;1961;48.194;16.370;2022-12-31T05:35:06;64.38;;;22.20;;
3891;SDS011;1961;48.194;16.370;2022-12-31T05:37:32;66.75;;;23.27;;
3891;SDS011;1961;48.194;16.370;2022-12-31T05:39:58;65.38;;;21.73;;
3891;SDS011;1961;48.194;16.370;2022-12-31T05:42:25;64.47;;;21.25;;
3891;SDS011;1961;48.194;16.370;2022-12-31T05:44:51;64.78;;;22.08;;
3891;SDS011;1961;48.194;16.370;2022-12-31T05:47:17;64.30;;;22.00;;
3891;SDS011;1961;48.194;16.370;2022-12-31T05:49:43;64.78;;;22.10;;
3891;SDS011;1961;48.194;16.370;2022-12-31T05:52:10;67.57;;;23.05;;
3891;SDS011;1961;48.194;16.370;2022-12-31T05:54:36;64.97;;;21.15;;
3891;SDS011;1961;48.194;16.370;2022-12-31T05:57:03;63.80;;;22.25;;
3891;SDS011;1961;48.194;16.370;2022-12-31T05:59:29;64.70;;;22.80;;
3891;SDS011;1961;48.194;16.370;2022-12-31T06:01:55;64.82;;;22.10;;
3891;SDS011;1961;48.194;16.370;2022-12-31T06:04:21;64.28;;;22.42;;
3891;SDS011;1961;48.194;16.370;2022-12-31T06:06:48;64.38;;;23.05;;
3891;SDS011;1961;48.194;16.370;2022-12-31T06:09:15;63.55;;;21.25;;
3891;SDS011;1961;48.194;16.370;2022-12-31T06:11:41;65.20;;;22.83;;
3891;SDS011;1961;48.194;16.370;2022-12-31T06:14:08;63.97;;;20.50;;
3891;SDS011;1961;48.194;16.370;2022-12-31T06:16:34;62.40;;;21.27;;
3891;SDS011;1961;48.194;16.370;2022-12-31T06:19:00;65.68;;;21.30;;
3891;SDS011;1961;48.194;16.370;2022-12-31T06:21:27;60.85;;;21.20;;
3891;SDS011;1961;48.194;16.370;2022-12-31T06:23:53;60.65;;;20.58;;
3891;SDS011;1961;48.194;16.370;2022-12-31T06:26:19;63.10;;;20.67;;
3891;SDS011;1961;48.194;16.370;2022-12-31T06:28:45;61.75;;;22.42;;
3891;SDS011;1961;48.194;16.370;2022-12-31T06:31:13;63.67;;;22.10;;
3891;SDS011;1961;48.194;16.370;2022-12-31T06:33:40;62.45;;;21.92;;
3891;SDS011;1961;48.194;16.370;2022-12-31T06:36:07;60.65;;;20.42;;
3891;SDS011;1961;48.194;16.370;2022-12-31T06:38:35;62.42;;;22.00;;
3891;SDS011;1961;48.194;16.370;2022-12-31T06:41:05;66.35;;;22.98;;
3891;SDS011;1961;48.194;16.370;2022-12-31T06:43:33;66.55;;;22.17;;
3891;SDS011;1961;48.194;16.370;2022-12-31T06:46:02;66.45;;;22.75;;
3891;SDS011;1961;48.194;16.370;2022-12-31T06:48:28;63.25;;;21.85;;
3891;SDS011;1961;48.194;16.370;2022-12-31T06:50:54;66.65;;;22.92;;
3891;SDS011;1961;48.194;16.370;2022-12-31T06:53:20;63.17;;;22.98;;
3891;SDS011;1961;48.194;16.370;2022-12-31T06:55:47;64.32;;;21.95;;
3891;SDS011;1961;48.194;16.370;2022-12-31T06:58:14;63.78;;;23.15;;
3891;SDS011;1961;48.194;16.370;2022-12-31T07:00:43;63.05;;;20.98;;
3891;SDS011;1961;48.194;16.370;2022-12-31T07:05:45;65.97;;;22.35;;
3891;SDS011;1961;48.194;16.370;2022-12-31T07:10:41;62.47;;;22.15;;
3891;SDS011;1961;48.194;16.370;2022-12-31T07:13:13;60.30;;;20.30;;
3891;SDS011;1961;48.194;16.370;2022-12-31T07:15:46;60.92;;;21.50;;
3891;SDS011;1961;48.194;16.370;2022-12-31T07:18:23;62.53;;;20.08;;
3891;SDS011;1961;48.194;16.370;2022-12-31T07:20:53;63.92;;;20.83;;
3891;SDS011;1961;48.194;16.370;2022-12-31T07:23:20;61.22;;;20.98;;
3891;SDS011;1961;48.194;16.370;2022-12-31T07:25:50;59.38;;;20.75;;
3891;SDS011;1961;48.194;16.370;2022-12-31T07:31:06;60.83;;;22.10;;
3891;SDS011;1961;48.194;16.370;2022-12-31T07:39:07;66.32;;;22.40;;
3891;SDS011;1961;48.194;16.370;2022-12-31T07:49:22;60.92;;;20.63;;
3891;SDS011;1961;48.194;16.370;2022-12-31T07:51:49;64.47;;;21.80;;
3891;SDS011;1961;48.194;16.370;2022-12-31T07:54:15;62.67;;;22.83;;
3891;SDS011;1961;48.194;16.370;2022-12-31T07:56:41;63.00;;;22.20;;
3891;SDS011;1961;48.194;16.370;2022-12-31T07:59:13;61.97;;;21.60;;
3891;SDS011;1961;48.194;16.370;2022-12-31T08:01:45;62.85;;;22.83;;
3891;SDS011;1961;48.194;16.370;2022-12-31T08:07:16;60.47;;;20.95;;
3891;SDS011;1961;48.194;16.370;2022-12-31T08:09:34;61.28;;;21.08;;
3891;SDS011;1961;48.194;16.370;2022-12-31T08:12:02;62.03;;;21.90;;
3891;SDS011;1961;48.194;16.370;2022-12-31T08:14:29;63.10;;;20.15;;
3891;SDS011;1961;48.194;16.370;2022-12-31T08:16:56;62.50;;;21.55;;
3891;SDS011;1961;48.194;16.370;2022-12-31T08:19:29;61.67;;;22.30;;
3891;SDS011;1961;48.194;16.370;2022-12-31T08:24:25;65.70;;;22.13;;
3891;SDS011;1961;48.194;16.370;2022-12-31T08:34:36;65.82;;;23.95;;
3891;SDS011;1961;48.194;16.370;2022-12-31T08:37:07;63.80;;;23.35;;
3891;SDS011;1961;48.194;16.370;2022-12-31T08:39:39;64.07;;;22.45;;
3891;SDS011;1961;48.194;16.370;2022-12-31T08:42:31;61.88;;;22.50;;
3891;SDS011;1961;48.194;16.370;2022-12-31T08:45:02;61.10;;;22.48;;
3891;SDS011;1961;48.194;16.370;2022-12-31T08:47:45;60.50;;;22.10;;
3891;SDS011;1961;48.194;16.370;2022-12-31T08:50:16;64.47;;;21.65;;
3891;SDS011;1961;48.194;16.370;2022-12-31T08:52:44;63.58;;;22.33;;
3891;SDS011;1961;48.194;16.370;2022-12-31T08:55:14;65.82;;;22.45;;
3891;SDS011;1961;48.194;16.370;2022-12-31T08:57:45;61.17;;;20.77;;
3891;SDS011;1961;48.194;16.370;2022-12-31T09:00:15;59.63;;;20.63;;
3891;SDS011;1961;48.194;16.370;2022-12-31T09:07:46;63.42;;;22.90;;
3891;SDS011;1961;48.194;16.370;2022-12-31T09:10:18;63.70;;;22.75;;
3891;SDS011;1961;48.194;16.370;2022-12-31T09:15:14;66.43;;;23.30;;
3891;SDS011;1961;48.194;16.370;2022-12-31T09:20:23;63.55;;;22.02;;
3891;SDS011;1961;48.194;16.370;2022-12-31T09:22:50;64.63;;;22.05;;
3891;SDS011;1961;48.194;16.370;2022-12-31T09:25:18;61.47;;;22.25;;
3891;SDS011;1961;48.194;16.370;2022-12-31T09:30:33;62.95;;;22.40;;
3891;SDS011;1961;48.194;16.370;2022-12-31T09:33:05;62.58;;;22.02;;
3891;SDS011;1961;48.194;16.370;2022-12-31T09:48:31;63.13;;;21.65;;
3891;SDS011;1961;48.194;16.370;2022-12-31T09:51:07;60.40;;;22.63;;
3891;SDS011;1961;48.194;16.370;2022-12-31T09:53:43;62.10;;;20.42;;
3891;SDS011;1961;48.194;16.370;2022-12-31T09:56:25;66.05;;;23.05;;
3891;SDS011;1961;48.194;16.370;2022-12-31T10:11:56;63.78;;;21.67;;
3891;SDS011;1961;48.194;16.370;2022-12-31T10:23:15;63.15;;;22.88;;
3891;SDS011;1961;48.194;16.370;2022-12-31T10:25:22;62.42;;;22.63;;
3891;SDS011;1961;48.194;16.370;2022-12-31T10:27:53;64.00;;;22.33;;
3891;SDS011;1961;48.194;16.370;2022-12-31T10:30:21;63.25;;;21.95;;
3891;SDS011;1961;48.194;16.370;2022-12-31T10:32:58;64.53;;;21.30;;
3891;SDS011;1961;48.194;16.370;2022-12-31T10:38:16;70.18;;;22.60;;
3891;SDS011;1961;48.194;16.370;2022-12-31T10:43:46;65.38;;;23.67;;
3891;SDS011;1961;48.194;16.370;2022-12-31T10:46:25;66.82;;;23.35;;
3891;SDS011;1961;48.194;16.370;2022-12-31T10:54:17;63.30;;;23.63;;
3891;SDS011;1961;48.194;16.370;2022-12-31T10:59:39;63.00;;;22.88;;
3891;SDS011;1961;48.194;16.370;2022-12-31T11:02:19;60.55;;;22.65;;
3891;SDS011;1961;48.194;16.370;2022-12-31T11:15:12;65.53;;;25.55;;
3891;SDS011;1961;48.194;16.370;2022-12-31T11:29:02;66.63;;;24.85;;
3891;SDS011;1961;48.194;16.370;2022-12-31T11:34:02;67.60;;;24.63;;
3891;SDS011;1961;48.194;16.370;2022-12-31T11:41:45;64.97;;;24.20;;
3891;SDS011;1961;48.194;16.370;2022-12-31T11:44:28;66.47;;;24.65;;
3891;SDS011;1961;48.194;16.370;2022-12-31T11:49:46;64.50;;;23.45;;
3891;SDS011;1961;48.194;16.370;2022-12-31T11:58:08;65.53;;;24.67;;
3891;SDS011;1961;48.194;16.370;2022-12-31T12:00:36;66.00;;;25.25;;
3891;SDS011;1961;48.194;16.370;2022-12-31T12:03:04;66.85;;;25.33;;
3891;SDS011;1961;48.194;16.370;2022-12-31T12:05:31;79.43;;;33.63;;
3891;SDS011;1961;48.194;16.370;2022-12-31T12:07:59;68.13;;;25.30;;
3891;SDS011;1961;48.194;16.370;2022-12-31T12:10:37;65.45;;;24.75;;
3891;SDS011;1961;48.194;16.370;2022-12-31T12:13:17;67.22;;;25.67;;
3891;SDS011;1961;48.194;16.370;2022-12-31T12:15:45;66.38;;;25.33;;
3891;SDS011;1961;48.194;16.370;2022-12-31T12:18:17;64.13;;;25.00;;
3891;SDS011;1961;48.194;16.370;2022-12-31T12:20:43;65.00;;;25.02;;
3891;SDS011;1961;48.194;16.370;2022-12-31T12:23:15;66.60;;;24.25;;
3891;SDS011;1961;48.194;16.370;2022-12-31T12:25:42;66.68;;;24.45;;
3891;SDS011;1961;48.194;16.370;2022-12-31T12:28:25;61.42;;;22.30;;
3891;SDS011;1961;48.194;16.370;2022-12-31T12:30:54;66.57;;;25.33;;
3891;SDS011;1961;48.194;16.370;2022-12-31T12:33:20;68.68;;;25.13;;
3891;SDS011;1961;48.194;16.370;2022-12-31T12:35:46;64.30;;;23.73;;
3891;SDS011;1961;48.194;16.370;2022-12-31T12:38:14;66.53;;;26.15;;
3891;SDS011;1961;48.194;16.370;2022-12-31T12:40:50;63.72;;;24.77;;
3891;SDS011;1961;48.194;16.370;2022-12-31T12:43:20;72.07;;;25.40;;
3891;SDS011;1961;48.194;16.370;2022-12-31T12:45:47;64.15;;;24.60;;
3891;SDS011;1961;48.194;16.370;2022-12-31T12:50:58;64.22;;;25.63;;
3891;SDS011;1961;48.194;16.370;2022-12-31T12:55:54;63.05;;;24.50;;
3891;SDS011;1961;48.194;16.370;2022-12-31T13:01:09;62.97;;;23.73;;
3891;SDS011;1961;48.194;16.370;2022-12-31T13:11:43;69.97;;;24.83;;
3891;SDS011;1961;48.194;16.370;2022-12-31T13:14:14;64.38;;;24.48;;
3891;SDS011;1961;48.194;16.370;2022-12-31T13:24:28;68.35;;;24.52;;
3891;SDS011;1961;48.194;16.370;2022-12-31T13:29:43;64.97;;;23.55;;
3891;SDS011;1961;48.194;16.370;2022-12-31T13:32:13;68.03;;;25.65;;
3891;SDS011;1961;48.194;16.370;2022-12-31T13:34:42;68.13;;;26.55;;
3891;SDS011;1961;48.194;16.370;2022-12-31T13:37:31;71.80;;;25.45;;
3891;SDS011;1961;48.194;16.370;2022-12-31T13:40:00;70.05;;;27.38;;
3891;SDS011;1961;48.194;16.370;2022-12-31T13:42:35;69.07;;;26.42;;
3891;SDS011;1961;48.194;16.370;2022-12-31T13:45:09;72.72;;;27.38;;
3891;SDS011;1961;48.194;16.370;2022-12-31T13:47:40;68.40;;;25.88;;
3891;SDS011;1961;48.194;16.370;2022-12-31T13:55:25;70.82;;;26.77;;
3891;SDS011;1961;48.194;16.370;2022-12-31T13:58:10;68.38;;;27.92;;
3891;SDS011;1961;48.194;16.370;2022-12-31T14:00:55;69.82;;;25.75;;
3891;SDS011;1961;48.194;16.370;2022-12-31T14:06:15;74.32;;;28.15;;
3891;SDS011;1961;48.194;16.370;2022-12-31T14:08:42;78.55;;;29.95;;
3891;SDS011;1961;48.194;16.370;2022-12-31T14:16:36;70.47;;;27.17;;
3891;SDS011;1961;48.194;16.370;2022-12-31T14:26:29;72.30;;;27.38;;
3891;SDS011;1961;48.194;16.370;2022-12-31T14:34:01;73.80;;;30.05;;
3891;SDS011;1961;48.194;16.370;2022-12-31T14:39:00;72.15;;;29.02;;
3891;SDS011;1961;48.194;16.370;2022-12-31T14:41:34;75.50;;;30.75;;
3891;SDS011;1961;48.194;16.370;2022-12-31T14:51:54;79.45;;;30.65;;
3891;SDS011;1961;48.194;16.370;2022-12-31T14:54:23;75.65;;;30.27;;
3891;SDS011;1961;48.194;16.370;2022-12-31T14:56:50;75.15;;;30.00;;
3891;SDS011;1961;48.194;16.370;2022-12-31T14:59:23;74.30;;;28.20;;
3891;SDS011;1961;48.194;16.370;2022-12-31T15:01:50;78.88;;;31.98;;
3891;SDS011;1961;48.194;16.370;2022-12-31T15:04:27;77.30;;;31.98;;
3891;SDS011;1961;48.194;16.370;2022-12-31T15:07:05;78.68;;;30.70;;
3891;SDS011;1961;48.194;16.370;2022-12-31T15:09:48;73.07;;;29.30;;
3891;SDS011;1961;48.194;16.370;2022-12-31T15:20:06;75.50;;;29.15;;
3891;SDS011;1961;48.194;16.370;2022-12-31T15:22:39;80.40;;;30.23;;
3891;SDS011;1961;48.194;16.370;2022-12-31T15:27:50;73.68;;;29.15;;
3891;SDS011;1961;48.194;16.370;2022-12-31T15:30:31;74.05;;;29.42;;
3891;SDS011;1961;48.194;16.370;2022-12-31T15:32:59;77.65;;;30.15;;
3891;SDS011;1961;48.194;16.370;2022-12-31T15:35:28;77.32;;;30.65;;
3891;SDS011;1961;48.194;16.370;2022-12-31T15:40:25;75.20;;;30.98;;
3891;SDS011;1961;48.194;16.370;2022-12-31T15:45:55;76.00;;;29.20;;
3891;SDS011;1961;48.194;16.370;2022-12-31T15:48:23;76.68;;;30.10;;
3891;SDS011;1961;48.194;16.370;2022-12-31T15:50:53;76.22;;;31.50;;
3891;SDS011;1961;48.194;16.370;2022-12-31T15:53:41;81.97;;;33.03;;
3891;SDS011;1961;48.194;16.370;2022-12-31T15:56:06;75.93;;;31.27;;
3891;SDS011;1961;48.194;16.370;2022-12-31T15:58:39;81.78;;;33.97;;
3891;SDS011;1961;48.194;16.370;2022-12-31T16:01:08;76.35;;;31.48;;
3891;SDS011;1961;48.194;16.370;2022-12-31T16:03:35;82.43;;;31.92;;
3891;SDS011;1961;48.194;16.370;2022-12-31T16:06:02;78.88;;;30.85;;
3891;SDS011;1961;48.194;16.370;2022-12-31T16:08:32;82.68;;;31.40;;
3891;SDS011;1961;48.194;16.370;2022-12-31T16:11:01;76.78;;;30.20;;
3891;SDS011;1961;48.194;16.370;2022-12-31T16:13:28;81.13;;;32.88;;
3891;SDS011;1961;48.194;16.370;2022-12-31T16:16:02;75.40;;;30.63;;
3891;SDS011;1961;48.194;16.370;2022-12-31T16:18:36;77.78;;;31.48;;
3891;SDS011;1961;48.194;16.370;2022-12-31T16:21:02;75.57;;;30.73;;
3891;SDS011;1961;48.194;16.370;2022-12-31T16:23:28;76.43;;;31.17;;
3891;SDS011;1961;48.194;16.370;2022-12-31T16:25:56;78.47;;;30.65;;
3891;SDS011;1961;48.194;16.370;2022-12-31T16:28:31;78.20;;;31.60;;
3891;SDS011;1961;48.194;16.370;2022-12-31T16:31:02;83.43;;;34.88;;
3891;SDS011;1961;48.194;16.370;2022-12-31T16:33:29;79.75;;;32.63;;
3891;SDS011;1961;48.194;16.370;2022-12-31T16:35:56;80.60;;;30.80;;
3891;SDS011;1961;48.194;16.370;2022-12-31T16:38:34;75.53;;;29.80;;
3891;SDS011;1961;48.194;16.370;2022-12-31T16:46:06;72.93;;;28.85;;
3891;SDS011;1961;48.194;16.370;2022-12-31T16:48:33;73.72;;;29.38;;
3891;SDS011;1961;48.194;16.370;2022-12-31T16:50:59;71.65;;;28.92;;
3891;SDS011;1961;48.194;16.370;2022-12-31T16:53:26;75.10;;;29.27;;
3891;SDS011;1961;48.194;16.370;2022-12-31T16:55:55;73.47;;;27.88;;
3891;SDS011;1961;48.194;16.370;2022-12-31T16:58:26;74.43;;;29.48;;
3891;SDS011;1961;48.194;16.370;2022-12-31T17:00:54;79.93;;;30.48;;
3891;SDS011;1961;48.194;16.370;2022-12-31T17:03:22;77.05;;;31.73;;
3891;SDS011;1961;48.194;16.370;2022-12-31T17:05:56;77.97;;;31.10;;
3891;SDS011;1961;48.194;16.370;2022-12-31T17:08:24;79.60;;;31.52;;
3891;SDS011;1961;48.194;16.370;2022-12-31T17:10:51;71.28;;;29.65;;
3891;SDS011;1961;48.194;16.370;2022-12-31T17:13:36;74.68;;;29.85;;
3891;SDS011;1961;48.194;16.370;2022-12-31T17:16:02;75.30;;;29.20;;
3891;SDS011;1961;48.194;16.370;2022-12-31T17:18:34;77.80;;;31.08;;
3891;SDS011;1961;48.194;16.370;2022-12-31T17:21:08;81.00;;;33.00;;
3891;SDS011;1961;48.194;16.370;2022-12-31T17:23:35;81.40;;;34.05;;
3891;SDS011;1961;48.194;16.370;2022-12-31T17:26:10;79.20;;;32.30;;
3891;SDS011;1961;48.194;16.370;2022-12-31T17:28:47;84.47;;;36.70;;
3891;SDS011;1961;48.194;16.370;2022-12-31T17:33:53;80.82;;;34.35;;
3891;SDS011;1961;48.194;16.370;2022-12-31T17:36:22;97.28;;;39.75;;
3891;SDS011;1961;48.194;16.370;2022-12-31T17:38:48;88.00;;;36.78;;
3891;SDS011;1961;48.194;16.370;2022-12-31T17:41:20;87.63;;;38.38;;
3891;SDS011;1961;48.194;16.370;2022-12-31T17:43:49;87.30;;;36.60;;
3891;SDS011;1961;48.194;16.370;2022-12-31T17:46:16;85.40;;;37.53;;
3891;SDS011;1961;48.194;16.370;2022-12-31T17:48:42;91.57;;;40.53;;
3891;SDS011;1961;48.194;16.370;2022-12-31T17:51:10;87.32;;;39.63;;
3891;SDS011;1961;48.194;16.370;2022-12-31T17:53:36;92.80;;;41.40;;
3891;SDS011;1961;48.194;16.370;2022-12-31T17:56:03;87.45;;;39.83;;
3891;SDS011;1961;48.194;16.370;2022-12-31T17:58:32;91.82;;;41.45;;
3891;SDS011;1961;48.194;16.370;2022-12-31T18:00:59;101.90;;;42.30;;
3891;SDS011;1961;48.194;16.370;2022-12-31T18:03:26;89.53;;;40.40;;
3891;SDS011;1961;48.194;16.370;2022-12-31T18:05:52;93.22;;;40.08;;
3891;SDS011;1961;48.194;16.370;2022-12-31T18:08:19;103.93;;;41.60;;
3891;SDS011;1961;48.194;16.370;2022-12-31T18:10:45;91.22;;;40.95;;
3891;SDS011;1961;48.194;16.370;2022-12-31T18:13:20;94.70;;;43.05;;
3891;SDS011;1961;48.194;16.370;2022-12-31T18:15:47;96.50;;;43.40;;
3891;SDS011;1961;48.194;16.370;2022-12-31T18:18:17;94.40;;;42.08;;
3891;SDS011;1961;48.194;16.370;2022-12-31T18:20:44;99.43;;;44.67;;
3891;SDS011;1961;48.194;16.370;2022-12-31T18:23:14;89.05;;;40.42;;
3891;SDS011;1961;48.194;16.370;2022-12-31T18:25:42;92.18;;;41.00;;
3891;SDS011;1961;48.194;16.370;2022-12-31T18:28:08;91.60;;;40.70;;
3891;SDS011;1961;48.194;16.370;2022-12-31T18:30:36;95.97;;;41.63;;
3891;SDS011;1961;48.194;16.370;2022-12-31T18:33:02;93.57;;;41.85;;
3891;SDS011;1961;48.194;16.370;2022-12-31T18:35:30;99.20;;;43.72;;
3891;SDS011;1961;48.194;16.370;2022-12-31T18:37:57;87.28;;;39.55;;
3891;SDS011;1961;48.194;16.370;2022-12-31T18:40:23;93.35;;;41.38;;
3891;SDS011;1961;48.194;16.370;2022-12-31T18:42:49;92.50;;;43.13;;
3891;SDS011;1961;48.194;16.370;2022-12-31T18:45:17;91.32;;;41.10;;
3891;SDS011;1961;48.194;16.370;2022-12-31T18:47:44;89.43;;;39.53;;
3891;SDS011;1961;48.194;16.370;2022-12-31T18:50:14;92.75;;;42.05;;